American Spirit — WDC4277 — position and weather

sailwx.info

Track history (hours):
 
Tides and Currents Weather Stations Pressure Air Temp Water Temp Dewpoint Dewpoint Depression Visibility Wind Speed Wind Dir Waves Ship Positions

American Spirit

Owner: AMERICAN WORKBOATS INC, TERMINAL ISLAND, CA. More information available from US FCC via Universal Licensing System and Coast Guard Vessel Documentation Center.

Last reported at 2015-Apr-18 02:21 UTC. Time now 2015-Apr-19 03:05 UTC.
Position N 33°37' W 117°54'.

Length 3 m; draft 10 m.

Type: Tug. MMSI: 367022090.

Date/timePositionNaut miles runAvg speedWind from/ knotsBaromVisibWave heightAir tempDewpointWater temp
2015-Apr-18 02:21N 33°37' W 117°54'2 2.6
2015-Apr-18 01:33N 33°35' W 117°53'4 4.1
2015-Apr-18 00:33N 33°31' W 117°54'4 4.0
2015-Apr-17 23:33N 33°35' W 117°53'2 2.0
2015-Apr-17 22:33N 33°37' W 117°54'0 0.0
2015-Apr-17 01:19N 33°37' W 117°54'2 2.2
2015-Apr-17 00:33N 33°36' W 117°53'4 4.4
2015-Apr-16 23:33N 33°31' W 117°54'4 3.9
2015-Apr-16 22:27N 33°35' W 117°53'2 2.1
2015-Apr-16 21:33N 33°37' W 117°54'0 0.0
2015-Apr-16 02:28N 33°37' W 117°54'2 2.0
2015-Apr-16 01:33N 33°35' W 117°53'4 4.2
2015-Apr-16 00:33N 33°31' W 117°54'4 3.8
2015-Apr-15 23:26N 33°35' W 117°53'2 2.1
2015-Apr-15 22:31N 33°37' W 117°54'2 0.1
2015-Apr-15 01:07N 33°35' W 117°53'5 4.4
2015-Apr-15 00:05N 33°31' W 117°54'6 3.2
2015-Apr-14 22:16N 33°37' W 117°54'1 0.1
2015-Apr-14 03:23N 33°36' W 117°53'3 3.2
2015-Apr-14 02:33N 33°33' W 117°53'3 0.9
2015-Apr-13 22:32N 33°37' W 117°54'0 0.0
2015-Apr-13 21:29N 33°37' W 117°54'0 0.0
2015-Apr-13 20:33N 33°37' W 117°54'0 0.0
2015-Apr-13 19:30N 33°37' W 117°54'0 0.0
2015-Apr-13 14:23N 33°37' W 117°54'0 0.0
2015-Apr-13 13:32N 33°37' W 117°54'0 0.0
2015-Apr-13 12:15N 33°37' W 117°54'0 0.0
2015-Apr-13 11:23N 33°37' W 117°54'0 0.0
2015-Apr-13 10:28N 33°37' W 117°54'0 0.0
2015-Apr-13 07:14N 33°37' W 117°54'0 0.0
2015-Apr-13 06:30N 33°37' W 117°54'0 0.0
2015-Apr-13 05:30N 33°37' W 117°54'0 0.1
2015-Apr-13 04:33N 33°37' W 117°54'0 0.1
2015-Apr-13 03:33N 33°37' W 117°54'0 0.0
2015-Apr-13 02:33N 33°37' W 117°54'0 0.0
2015-Apr-13 01:33N 33°37' W 117°54'0 0.0
2015-Apr-13 00:33N 33°37' W 117°54'0 0.0
2015-Apr-12 23:33N 33°37' W 117°54'0 0.0
2015-Apr-12 22:33N 33°37' W 117°54'0 0.0
2015-Apr-12 21:33N 33°37' W 117°54'0 0.0
2015-Apr-12 20:04N 33°37' W 117°54'0 0.0
2015-Apr-12 19:18N 33°37' W 117°54'0 0.0
2015-Apr-12 18:33N 33°37' W 117°54'0 0.0
2015-Apr-12 17:33N 33°37' W 117°54'0 0.0
2015-Apr-12 16:21N 33°37' W 117°54'0 0.0
2015-Apr-12 15:30N 33°37' W 117°54'0 0.0
2015-Apr-12 14:09N 33°37' W 117°54'0 0.0
2015-Apr-12 13:21N 33°37' W 117°54'0 0.0
2015-Apr-12 12:31N 33°37' W 117°54'0 0.0
2015-Apr-12 11:32N 33°37' W 117°54'0 0.0
2015-Apr-12 10:26N 33°37' W 117°54'0 0.0
2015-Apr-12 09:31N 33°37' W 117°54'0 0.0
2015-Apr-12 08:33N 33°37' W 117°54'0 0.0
2015-Apr-12 07:18N 33°37' W 117°54'0 0.1
2015-Apr-12 06:29N 33°37' W 117°54'0 0.0
2015-Apr-12 05:28N 33°37' W 117°54'0 0.0
2015-Apr-12 04:32N 33°37' W 117°54'0 0.0
2015-Apr-12 03:33N 33°37' W 117°54'0 0.0
2015-Apr-12 02:33N 33°37' W 117°54'0 0.0
2015-Apr-12 01:33N 33°37' W 117°54'0 0.0
2015-Apr-12 00:31N 33°37' W 117°54'0 0.0
2015-Apr-11 23:33N 33°37' W 117°54'0 0.0
2015-Apr-11 22:33N 33°37' W 117°54'0 0.0
2015-Apr-11 21:33N 33°37' W 117°54'0 0.0
2015-Apr-11 20:33N 33°37' W 117°54'0 0.0
2015-Apr-11 19:33N 33°37' W 117°54'0 0.0
2015-Apr-11 18:33N 33°37' W 117°54'0 0.0
2015-Apr-11 17:05N 33°37' W 117°54'0 0.0
2015-Apr-11 16:27N 33°37' W 117°54'0 0.0
2015-Apr-11 15:11N 33°37' W 117°54'0 0.0
2015-Apr-11 14:29N 33°37' W 117°54'0 0.0
2015-Apr-11 12:18N 33°37' W 117°54'0 0.0
2015-Apr-11 11:26N 33°37' W 117°54'0 0.0
2015-Apr-11 08:08N 33°37' W 117°54'0 0.0
2015-Apr-11 06:30N 33°37' W 117°54'0 0.0
2015-Apr-11 05:33N 33°37' W 117°54'0 0.0
2015-Apr-11 04:33N 33°37' W 117°54'0 0.0
2015-Apr-11 03:33N 33°37' W 117°54'0 0.0
2015-Apr-11 02:33N 33°37' W 117°54'0 0.0
2015-Apr-11 01:32N 33°37' W 117°54'0 0.0
2015-Apr-11 00:29N 33°37' W 117°54'0 0.0
2015-Apr-10 23:21N 33°37' W 117°54'0 0.0
2015-Apr-10 22:29N 33°37' W 117°54'0 0.0
2015-Apr-10 21:06N 33°37' W 117°54'0 0.0
2015-Apr-10 19:33N 33°37' W 117°54'0 0.0
2015-Apr-10 02:07N 33°37' W 117°54'0 0.6
2015-Apr-10 01:26N 33°36' W 117°54'3 2.9
2015-Apr-10 00:33N 33°34' W 117°53'2 2.2
2015-Apr-09 23:33N 33°32' W 117°53'5 3.1
2015-Apr-09 22:03N 33°37' W 117°54'0 0.0
2015-Apr-09 04:27N 33°37' W 117°54'2 1.7
2015-Apr-09 03:33N 33°36' W 117°53'4 3.8
2015-Apr-09 02:31N 33°32' W 117°53'5 0.2
2015-Apr-08 06:11N 33°37' W 117°54'1 1.0
2015-Apr-08 05:32N 33°36' W 117°54'3 2.8
2015-Apr-08 04:33N 33°33' W 117°53'  
Track history (hours):
 
Tides and Currents Weather Stations Pressure Air Temp Water Temp Dewpoint Dewpoint Depression Visibility Wind Speed Wind Dir Waves Ship Positions

American Spirit

Owner: AMERICAN WORKBOATS INC, TERMINAL ISLAND, CA. More information available from US FCC via Universal Licensing System and Coast Guard Vessel Documentation Center.

Last reported at 2015-Apr-18 02:21 UTC. Time now 2015-Apr-19 03:05 UTC.
Position N 33°37' W 117°54'.

Length 3 m; draft 10 m.

Type: Tug. MMSI: 367022090.

Date/timePositionNaut miles runAvg speedWind from/ knotsBaromVisibWave heightAir tempDewpointWater temp
2015-Apr-18 02:21N 33°37' W 117°54'2 2.6
2015-Apr-18 01:33N 33°35' W 117°53'4 4.1
2015-Apr-18 00:33N 33°31' W 117°54'4 4.0
2015-Apr-17 23:33N 33°35' W 117°53'2 2.0
2015-Apr-17 22:33N 33°37' W 117°54'0 0.0
2015-Apr-17 01:19N 33°37' W 117°54'2 2.2
2015-Apr-17 00:33N 33°36' W 117°53'4 4.4
2015-Apr-16 23:33N 33°31' W 117°54'4 3.9
2015-Apr-16 22:27N 33°35' W 117°53'2 2.1
2015-Apr-16 21:33N 33°37' W 117°54'0 0.0
2015-Apr-16 02:28N 33°37' W 117°54'2 2.0
2015-Apr-16 01:33N 33°35' W 117°53'4 4.2
2015-Apr-16 00:33N 33°31' W 117°54'4 3.8
2015-Apr-15 23:26N 33°35' W 117°53'2 2.1
2015-Apr-15 22:31N 33°37' W 117°54'2 0.1
2015-Apr-15 01:07N 33°35' W 117°53'5 4.4
2015-Apr-15 00:05N 33°31' W 117°54'6 3.2
2015-Apr-14 22:16N 33°37' W 117°54'1 0.1
2015-Apr-14 03:23N 33°36' W 117°53'3 3.2
2015-Apr-14 02:33N 33°33' W 117°53'3 0.9
2015-Apr-13 22:32N 33°37' W 117°54'0 0.0
2015-Apr-13 21:29N 33°37' W 117°54'0 0.0
2015-Apr-13 20:33N 33°37' W 117°54'0 0.0
2015-Apr-13 19:30N 33°37' W 117°54'0 0.0
2015-Apr-13 14:23N 33°37' W 117°54'0 0.0
2015-Apr-13 13:32N 33°37' W 117°54'0 0.0
2015-Apr-13 12:15N 33°37' W 117°54'0 0.0
2015-Apr-13 11:23N 33°37' W 117°54'0 0.0
2015-Apr-13 10:28N 33°37' W 117°54'0 0.0
2015-Apr-13 07:14N 33°37' W 117°54'0 0.0
2015-Apr-13 06:30N 33°37' W 117°54'0 0.0
2015-Apr-13 05:30N 33°37' W 117°54'0 0.1
2015-Apr-13 04:33N 33°37' W 117°54'0 0.1
2015-Apr-13 03:33N 33°37' W 117°54'0 0.0
2015-Apr-13 02:33N 33°37' W 117°54'0 0.0
2015-Apr-13 01:33N 33°37' W 117°54'0 0.0
2015-Apr-13 00:33N 33°37' W 117°54'0 0.0
2015-Apr-12 23:33N 33°37' W 117°54'0 0.0
2015-Apr-12 22:33N 33°37' W 117°54'0 0.0
2015-Apr-12 21:33N 33°37' W 117°54'0 0.0
2015-Apr-12 20:04N 33°37' W 117°54'0 0.0
2015-Apr-12 19:18N 33°37' W 117°54'0 0.0
2015-Apr-12 18:33N 33°37' W 117°54'0 0.0
2015-Apr-12 17:33N 33°37' W 117°54'0 0.0
2015-Apr-12 16:21N 33°37' W 117°54'0 0.0
2015-Apr-12 15:30N 33°37' W 117°54'0 0.0
2015-Apr-12 14:09N 33°37' W 117°54'0 0.0
2015-Apr-12 13:21N 33°37' W 117°54'0 0.0
2015-Apr-12 12:31N 33°37' W 117°54'0 0.0
2015-Apr-12 11:32N 33°37' W 117°54'0 0.0
2015-Apr-12 10:26N 33°37' W 117°54'0 0.0
2015-Apr-12 09:31N 33°37' W 117°54'0 0.0
2015-Apr-12 08:33N 33°37' W 117°54'0 0.0
2015-Apr-12 07:18N 33°37' W 117°54'0 0.1
2015-Apr-12 06:29N 33°37' W 117°54'0 0.0
2015-Apr-12 05:28N 33°37' W 117°54'0 0.0
2015-Apr-12 04:32N 33°37' W 117°54'0 0.0
2015-Apr-12 03:33N 33°37' W 117°54'0 0.0
2015-Apr-12 02:33N 33°37' W 117°54'0 0.0
2015-Apr-12 01:33N 33°37' W 117°54'0 0.0
2015-Apr-12 00:31N 33°37' W 117°54'0 0.0
2015-Apr-11 23:33N 33°37' W 117°54'0 0.0
2015-Apr-11 22:33N 33°37' W 117°54'0 0.0
2015-Apr-11 21:33N 33°37' W 117°54'0 0.0
2015-Apr-11 20:33N 33°37' W 117°54'0 0.0
2015-Apr-11 19:33N 33°37' W 117°54'0 0.0
2015-Apr-11 18:33N 33°37' W 117°54'0 0.0
2015-Apr-11 17:05N 33°37' W 117°54'0 0.0
2015-Apr-11 16:27N 33°37' W 117°54'0 0.0
2015-Apr-11 15:11N 33°37' W 117°54'0 0.0
2015-Apr-11 14:29N 33°37' W 117°54'0 0.0
2015-Apr-11 12:18N 33°37' W 117°54'0 0.0
2015-Apr-11 11:26N 33°37' W 117°54'0 0.0
2015-Apr-11 08:08N 33°37' W 117°54'0 0.0
2015-Apr-11 06:30N 33°37' W 117°54'0 0.0
2015-Apr-11 05:33N 33°37' W 117°54'0 0.0
2015-Apr-11 04:33N 33°37' W 117°54'0 0.0
2015-Apr-11 03:33N 33°37' W 117°54'0 0.0
2015-Apr-11 02:33N 33°37' W 117°54'0 0.0
2015-Apr-11 01:32N 33°37' W 117°54'0 0.0
2015-Apr-11 00:29N 33°37' W 117°54'0 0.0
2015-Apr-10 23:21N 33°37' W 117°54'0 0.0
2015-Apr-10 22:29N 33°37' W 117°54'0 0.0
2015-Apr-10 21:06N 33°37' W 117°54'0 0.0
2015-Apr-10 19:33N 33°37' W 117°54'0 0.0
2015-Apr-10 02:07N 33°37' W 117°54'0 0.6
2015-Apr-10 01:26N 33°36' W 117°54'3 2.9
2015-Apr-10 00:33N 33°34' W 117°53'2 2.2
2015-Apr-09 23:33N 33°32' W 117°53'5 3.1
2015-Apr-09 22:03N 33°37' W 117°54'0 0.0
2015-Apr-09 04:27N 33°37' W 117°54'2 1.7
2015-Apr-09 03:33N 33°36' W 117°53'4 3.8
2015-Apr-09 02:31N 33°32' W 117°53'5 0.2
2015-Apr-08 06:11N 33°37' W 117°54'1 1.0
2015-Apr-08 05:32N 33°36' W 117°54'3 2.8
2015-Apr-08 04:33N 33°33' W 117°53'  

Dump ship's entire track history